Time,TemperatureF,DewpointF,PressureIn,WindDirection,WindDirectionDegrees,WindSpeedMPH,WindSpeedGustMPH,Humidity,HourlyPrecipIn,Conditions,Clouds,dailyrainin,SoftwareType,DateUTC
2013-04-17 01:57:00,45.6,35.3,30.10,NNW,330,1.0,0.0,67,0.00,CLR,CLR,0.00,WeatherDisplay:10.37,2013-04-17 06:57:00,
2013-04-17 01:58:00,45.6,35.3,30.10,ESE,105,2.0,2.0,67,0.00,CLR,CLR,0.00,WeatherDisplay:10.37,2013-04-17 06:58:00,
2013-04-17 01:59:00,45.6,35.3,30.10,ESE,105,2.0,2.0,67,0.00,CLR,CLR,0.00,WeatherDisplay:10.37,2013-04-17 06:59:00,
2013-04-17 02:04:00,45.6,35.3,30.09,ESE,103,3.5,3.5,67,0.00,CLR,CLR,0.00,WeatherDisplay:10.37,2013-04-17 07:04:00,
2013-04-17 02:07:00,45.5,35.2,30.08,NNE,32,3.0,3.0,67,0.00,CLR,CLR,0.00,WeatherDisplay:10.37,2013-04-17 07:07:00,
2013-04-17 02:12:00,45.5,35.2,30.07,East,94,2.0,2.0,67,0.00,CLR,CLR,0.00,WeatherDisplay:10.37,2013-04-17 07:12:00,
2013-04-17 02:15:00,45.5,35.2,30.08,East,90,2.0,2.0,67,0.00,CLR,CLR,0.00,WeatherDisplay:10.37,2013-04-17 07:15:00,
2013-04-17 02:20:00,45.4,35.1,30.08,ENE,63,2.3,2.3,67,0.00,CLR,CLR,0.00,WeatherDisplay:10.37,2013-04-17 07:20:00,
2013-04-17 02:25:00,45.4,35.1,30.07,NE,41,3.5,3.5,67,0.00,CLR,CLR,0.00,WeatherDisplay:10.37,2013-04-17 07:25:00,
2013-04-17 02:30:00,45.4,35.1,30.07,East,82,1.2,1.2,67,0.00,CLR,CLR,0.00,WeatherDisplay:10.37,2013-04-17 07:30:00,
2013-04-17 02:35:00,45.4,35.1,30.07,East,90,1.2,1.2,67,0.00,CLR,CLR,0.00,WeatherDisplay:10.37,2013-04-17 07:35:00,
2013-04-17 02:40:00,45.3,35.0,30.07,North,5,5.0,5.0,67,0.00,CLR,CLR,0.00,WeatherDisplay:10.37,2013-04-17 07:40:00,
2013-04-17 02:45:00,45.3,35.4,30.06,NNE,25,4.0,4.0,68,0.00,CLR,CLR,0.00,WeatherDisplay:10.37,2013-04-17 07:45:00,
2013-04-17 02:50:00,45.2,35.3,30.06,East,93,3.0,3.0,68,0.00,CLR,CLR,0.00,WeatherDisplay:10.37,2013-04-17 07:50:00,
2013-04-17 02:55:00,45.2,35.3,30.06,NNE,26,1.2,1.2,68,0.00,CLR,CLR,0.00,WeatherDisplay:10.37,2013-04-17 07:55:00,
2013-04-17 03:00:00,45.2,35.3,30.07,North,349,3.5,3.5,68,0.00,CLR,CLR,0.00,WeatherDisplay:10.37,2013-04-17 08:00:00,
2013-04-17 03:05:00,45.1,35.2,30.06,ENE,69,1.2,1.2,68,0.00,CLR,CLR,0.00,WeatherDisplay:10.37,2013-04-17 08:05:00,
2013-04-17 03:10:00,45.1,35.2,30.05,NE,49,7.0,7.0,68,0.00,CLR,CLR,0.00,WeatherDisplay:10.37,2013-04-17 08:10:00,
2013-04-17 03:15:00,45.0,35.1,30.05,SW,221,7.0,7.0,68,0.00,CLR,CLR,0.00,WeatherDisplay:10.37,2013-04-17 08:15:00,
2013-04-17 03:20:00,45.0,35.4,30.04,NE,37,4.6,4.6,69,0.00,CLR,CLR,0.00,WeatherDisplay:10.37,2013-04-17 08:20:00,
2013-04-17 03:25:00,44.9,35.3,30.03,ENE,59,5.0,5.0,69,0.00,CLR,CLR,0.00,WeatherDisplay:10.37,2013-04-17 08:25:00,
2013-04-17 03:30:00,44.8,35.2,30.04,East,80,5.0,5.0,69,0.00,CLR,CLR,0.00,WeatherDisplay:10.37,2013-04-17 08:30:00,
2013-04-17 03:35:00,44.7,35.1,30.04,NE,35,3.5,3.5,69,0.00,CLR,CLR,0.00,WeatherDisplay:10.37,2013-04-17 08:35:00,
2013-04-17 03:40:00,44.7,35.5,30.05,East,79,2.3,2.3,70,0.00,CLR,CLR,0.00,WeatherDisplay:10.37,2013-04-17 08:40:00,
2013-04-17 03:45:00,44.7,35.5,30.05,NNE,28,4.0,4.0,70,0.00,CLR,CLR,0.00,WeatherDisplay:10.37,2013-04-17 08:45:00,
2013-04-17 03:50:00,44.6,35.4,30.05,ESE,120,3.5,3.5,70,0.00,CLR,CLR,0.00,WeatherDisplay:10.37,2013-04-17 08:50:00,
2013-04-17 03:55:00,44.6,35.8,30.05,NE,37,6.0,6.0,71,0.00,CLR,CLR,0.00,WeatherDisplay:10.37,2013-04-17 08:55:00,
2013-04-17 04:00:00,44.5,35.7,30.03,NNE,24,5.8,5.8,71,0.00,CLR,CLR,0.00,WeatherDisplay:10.37,2013-04-17 09:00:00,
2013-04-17 04:05:00,44.4,35.6,30.03,North,11,4.6,4.6,71,0.00,CLR,CLR,0.00,WeatherDisplay:10.37,2013-04-17 09:05:00,
2013-04-17 04:10:00,44.3,35.5,30.03,ENE,65,5.8,5.8,71,0.00,CLR,CLR,0.00,WeatherDisplay:10.37,2013-04-17 09:10:00,
2013-04-17 04:15:00,44.2,35.7,30.02,ESE,112,13.0,13.0,72,0.00,CLR,CLR,0.00,WeatherDisplay:10.37,2013-04-17 09:15:00,
2013-04-17 04:20:00,44.2,35.7,30.03,ENE,57,2.3,2.3,72,0.00,CLR,CLR,0.00,WeatherDisplay:10.37,2013-04-17 09:20:00,
2013-04-17 04:25:00,44.1,35.6,30.01,ENE,65,8.0,8.0,72,0.00,CLR,CLR,0.00,WeatherDisplay:10.37,2013-04-17 09:25:00,
2013-04-17 04:30:00,44.1,35.6,30.00,NE,45,8.1,8.1,72,0.00,CLR,CLR,0.00,WeatherDisplay:10.37,2013-04-17 09:30:00,
2013-04-17 04:35:00,44.1,35.6,30.01,ESE,120,8.1,8.1,72,0.00,CLR,CLR,0.00,WeatherDisplay:10.37,2013-04-17 09:35:00,
2013-04-17 04:40:00,44.1,35.6,30.00,ENE,78,5.0,5.0,72,0.00,CLR,CLR,0.00,WeatherDisplay:10.37,2013-04-17 09:40:00,
2013-04-17 04:45:00,44.0,35.9,29.98,ESE,121,5.8,5.8,73,0.00,CLR,CLR,0.00,WeatherDisplay:10.37,2013-04-17 09:45:00,
2013-04-17 04:50:00,43.9,35.8,29.97,East,86,8.1,8.1,73,0.00,CLR,CLR,0.00,WeatherDisplay:10.37,2013-04-17 09:50:00,
2013-04-17 04:55:00,43.8,36.0,29.97,NE,42,5.0,5.0,74,0.00,CLR,CLR,0.00,WeatherDisplay:10.37,2013-04-17 09:55:00,
2013-04-17 05:00:00,43.8,36.7,29.98,East,83,3.5,3.5,76,0.00,CLR,CLR,0.00,WeatherDisplay:10.37,2013-04-17 10:00:00,
2013-04-17 05:05:00,43.7,37.0,29.99,North,355,2.3,2.3,77,0.00,CLR,CLR,0.00,WeatherDisplay:10.37,2013-04-17 10:05:00,
2013-04-17 05:10:00,43.5,37.1,30.02,East,97,3.5,3.5,78,0.00,CLR,CLR,0.00,WeatherDisplay:10.37,2013-04-17 10:10:00,
2013-04-17 05:15:00,43.3,37.5,30.09,WSW,240,6.0,6.0,80,0.00,CLR,CLR,0.00,WeatherDisplay:10.37,2013-04-17 10:15:00,
2013-04-17 05:20:00,43.1,38.0,30.04,NNW,335,3.5,3.5,82,0.01,RA,RA,0.01,WeatherDisplay:10.37,2013-04-17 10:20:00,
2013-04-17 05:25:00,42.9,38.4,30.03,NE,40,1.2,1.2,84,0.03,RA,RA,0.04,WeatherDisplay:10.37,2013-04-17 10:25:00,
2013-04-17 05:30:00,42.6,38.4,30.04,NE,40,0.0,0.0,85,0.07,RA,RA,0.07,WeatherDisplay:10.37,2013-04-17 10:30:00,
2013-04-17 05:35:00,42.2,38.3,30.01,East,90,3.5,3.5,86,0.09,RA,RA,0.09,WeatherDisplay:10.37,2013-04-17 10:35:00,
2013-04-17 05:40:00,42.0,38.4,30.02,NE,48,4.0,4.0,87,0.12,RA,RA,0.13,WeatherDisplay:10.37,2013-04-17 10:40:00,
2013-04-17 05:45:00,41.7,38.7,30.02,NE,38,2.3,2.3,89,0.16,RA,RA,0.16,WeatherDisplay:10.37,2013-04-17 10:45:00,
2013-04-17 05:50:00,41.5,38.8,30.04,NE,51,2.3,2.3,90,0.18,RA,RA,0.18,WeatherDisplay:10.37,2013-04-17 10:50:00,
2013-04-17 05:55:00,41.4,38.7,30.04,ESE,110,1.0,1.0,90,0.20,RA,RA,0.20,WeatherDisplay:10.37,2013-04-17 10:55:00,
2013-04-17 06:00:00,41.3,38.9,30.02,NNE,31,4.6,4.6,91,0.23,RA,RA,0.23,WeatherDisplay:10.37,2013-04-17 11:00:00,
2013-04-17 06:05:00,41.1,38.7,30.00,NE,43,2.3,2.3,91,0.25,RA,RA,0.25,WeatherDisplay:10.37,2013-04-17 11:05:00,
2013-04-17 06:10:00,41.0,38.6,29.95,ESE,111,4.6,4.6,91,0.26,RA,RA,0.26,WeatherDisplay:10.37,2013-04-17 11:10:00,
2013-04-17 06:15:00,40.8,38.7,29.94,ENE,57,4.0,4.0,92,0.27,RA,RA,0.27,WeatherDisplay:10.37,2013-04-17 11:15:00,
2013-04-17 06:20:00,40.7,38.6,29.93,NNE,17,5.0,5.0,92,0.28,RA,RA,0.29,WeatherDisplay:10.37,2013-04-17 11:20:00,
2013-04-17 06:25:00,40.6,38.7,29.90,ENE,61,8.0,8.0,93,0.27,RA,RA,0.30,WeatherDisplay:10.37,2013-04-17 11:25:00,
2013-04-17 06:30:00,40.5,38.6,29.87,ENE,62,7.0,7.0,93,0.24,RA,RA,0.31,WeatherDisplay:10.37,2013-04-17 11:30:00,
2013-04-17 06:35:00,40.5,38.6,29.89,NE,55,8.0,8.0,93,0.23,RA,RA,0.32,WeatherDisplay:10.37,2013-04-17 11:35:00,
2013-04-17 06:40:00,40.5,38.6,29.93,NE,53,6.0,6.0,93,0.21,RA,RA,0.34,WeatherDisplay:10.37,2013-04-17 11:40:00,
2013-04-17 06:45:00,40.5,38.6,29.95,NNE,26,5.0,5.0,93,0.18,RA,RA,0.35,WeatherDisplay:10.37,2013-04-17 11:45:00,
2013-04-17 06:50:00,40.6,38.7,29.97,North,355,3.5,3.5,93,0.19,RA,RA,0.37,WeatherDisplay:10.37,2013-04-17 11:50:00,
2013-04-17 06:55:00,40.6,38.7,29.99,NNE,30,3.0,3.0,93,0.18,RA,RA,0.38,WeatherDisplay:10.37,2013-04-17 11:55:00,
2013-04-17 07:00:00,40.6,38.7,29.99,NE,51,2.3,2.3,93,0.16,RA,RA,0.39,WeatherDisplay:10.37,2013-04-17 12:00:00,
2013-04-17 07:05:00,40.6,39.0,29.95,NE,42,4.0,4.0,94,0.16,RA,RA,0.40,WeatherDisplay:10.37,2013-04-17 12:05:00,
2013-04-17 07:10:00,40.5,38.9,29.91,NNW,331,9.2,9.2,94,0.15,RA,RA,0.41,WeatherDisplay:10.37,2013-04-17 12:10:00,
2013-04-17 07:15:00,40.5,38.9,29.91,NNE,31,7.0,7.0,94,0.15,RA,RA,0.43,WeatherDisplay:10.37,2013-04-17 12:15:00,
2013-04-17 07:20:00,40.5,38.9,29.98,NNW,328,1.2,1.2,94,0.21,RA,RA,0.50,WeatherDisplay:10.37,2013-04-17 12:20:00,
2013-04-17 07:25:00,40.5,38.9,29.96,NNE,31,3.5,3.5,94,0.23,RA,RA,0.53,WeatherDisplay:10.37,2013-04-17 12:25:00,
2013-04-17 07:30:00,40.5,38.9,29.94,NNE,18,3.5,3.5,94,0.23,RA,RA,0.54,WeatherDisplay:10.37,2013-04-17 12:30:00,
2013-04-17 07:35:00,40.5,38.9,29.93,ENE,66,3.5,3.5,94,0.23,RA,RA,0.55,WeatherDisplay:10.37,2013-04-17 12:35:00,
2013-04-17 07:40:00,40.6,39.3,29.92,NE,34,3.5,3.5,95,0.22,RA,RA,0.55,WeatherDisplay:10.37,2013-04-17 12:40:00,
2013-04-17 07:45:00,40.6,39.3,29.94,NW,325,5.0,5.0,95,0.20,,,0.55,WeatherDisplay:10.37,2013-04-17 12:45:00,
2013-04-17 07:50:00,40.7,39.4,30.02,South,187,3.5,3.5,95,0.18,CLR,CLR,0.55,WeatherDisplay:10.37,2013-04-17 12:50:00,
2013-04-17 07:55:00,40.8,39.5,30.00,ESE,114,0.0,0.0,95,0.17,CLR,CLR,0.55,WeatherDisplay:10.37,2013-04-17 12:55:00,
2013-04-17 08:00:00,40.9,39.6,29.98,North,5,3.5,3.5,95,0.16,CLR,CLR,0.55,WeatherDisplay:10.37,2013-04-17 13:00:00,
2013-04-17 08:05:00,40.9,39.6,29.99,North,355,1.2,1.2,95,0.15,CLR,CLR,0.55,WeatherDisplay:10.37,2013-04-17 13:05:00,
2013-04-17 08:10:00,40.9,39.6,29.99,NW,325,2.0,2.0,95,0.14,CLR,CLR,0.55,WeatherDisplay:10.37,2013-04-17 13:10:00,
2013-04-17 08:15:00,40.9,39.6,29.98,NNW,344,4.0,4.0,95,0.13,CLR,CLR,0.55,WeatherDisplay:10.37,2013-04-17 13:15:00,
2013-04-17 08:20:00,40.9,39.6,29.98,NNW,339,3.0,3.0,95,0.06,CLR,CLR,0.55,WeatherDisplay:10.37,2013-04-17 13:20:00,
2013-04-17 08:25:00,40.8,39.5,29.98,NW,315,5.0,5.0,95,0.02,CLR,CLR,0.55,WeatherDisplay:10.37,2013-04-17 13:25:00,
2013-04-17 08:30:00,40.7,39.4,29.97,NNW,347,4.0,4.0,95,0.01,CLR,CLR,0.55,WeatherDisplay:10.37,2013-04-17 13:30:00,
2013-04-17 08:35:00,40.6,39.0,29.98,NW,325,5.8,5.8,94,0.00,CLR,CLR,0.55,WeatherDisplay:10.37,2013-04-17 13:35:00,
2013-04-17 08:40:00,40.3,38.4,29.98,NW,320,6.0,6.0,93,0.00,CLR,CLR,0.55,WeatherDisplay:10.37,2013-04-17 13:40:00,
2013-04-17 08:45:00,40.0,38.1,29.98,NW,305,5.0,5.0,93,0.00,CLR,CLR,0.55,WeatherDisplay:10.37,2013-04-17 13:45:00,
2013-04-17 08:50:00,39.7,38.1,29.98,NW,320,6.0,6.0,94,0.00,CLR,CLR,0.55,WeatherDisplay:10.37,2013-04-17 13:50:00,
2013-04-17 08:55:00,39.6,38.0,29.98,North,350,4.6,4.6,94,0.00,CLR,CLR,0.55,WeatherDisplay:10.37,2013-04-17 13:55:00,
2013-04-17 09:00:00,39.5,37.9,29.97,East,91,4.6,4.6,94,0.00,CLR,CLR,0.55,WeatherDisplay:10.37,2013-04-17 14:00:00,
2013-04-17 09:05:00,39.4,38.1,29.97,NNE,15,5.8,5.8,95,0.00,CLR,CLR,0.55,WeatherDisplay:10.37,2013-04-17 14:05:00,
2013-04-17 09:10:00,39.3,37.7,29.97,NNW,337,3.5,3.5,94,0.00,CLR,CLR,0.55,WeatherDisplay:10.37,2013-04-17 14:10:00,
2013-04-17 09:15:00,39.2,37.6,29.96,ENE,65,3.5,3.5,94,0.00,CLR,CLR,0.55,WeatherDisplay:10.37,2013-04-17 14:15:00,
2013-04-17 09:20:00,39.2,37.6,29.95,WNW,300,7.0,7.0,94,0.00,CLR,CLR,0.55,WeatherDisplay:10.37,2013-04-17 14:20:00,
2013-04-17 09:25:00,39.1,37.5,29.96,NNE,19,7.0,7.0,94,0.00,CLR,CLR,0.55,WeatherDisplay:10.37,2013-04-17 14:25:00,
2013-04-17 09:30:00,39.1,37.8,29.97,North,351,3.0,3.0,95,0.00,CLR,CLR,0.55,WeatherDisplay:10.37,2013-04-17 14:30:00,
2013-04-17 09:35:00,39.1,37.8,29.96,NNW,339,4.0,4.0,95,0.00,CLR,CLR,0.55,WeatherDisplay:10.37,2013-04-17 14:35:00,
2013-04-17 09:40:00,39.1,37.8,29.96,NE,34,2.3,2.3,95,0.00,CLR,CLR,0.55,WeatherDisplay:10.37,2013-04-17 14:40:00,
2013-04-17 09:45:00,39.1,37.8,29.96,NNW,347,3.5,3.5,95,0.00,CLR,CLR,0.55,WeatherDisplay:10.37,2013-04-17 14:45:00,
2013-04-17 09:50:00,39.2,37.9,29.95,North,5,5.0,5.0,95,0.00,CLR,CLR,0.55,WeatherDisplay:10.37,2013-04-17 14:50:00,
2013-04-17 09:55:00,39.2,37.9,29.96,NE,44,3.5,3.5,95,0.00,CLR,CLR,0.55,WeatherDisplay:10.37,2013-04-17 14:55:00,
2013-04-17 10:00:00,39.2,37.9,29.95,NE,44,9.0,9.0,95,0.00,CLR,CLR,0.55,WeatherDisplay:10.37,2013-04-17 15:00:00,
2013-04-17 10:05:00,39.2,37.9,29.95,North,355,4.0,4.0,95,0.00,CLR,CLR,0.55,WeatherDisplay:10.37,2013-04-17 15:05:00,
2013-04-17 10:10:00,39.2,37.9,29.94,NE,41,5.0,5.0,95,0.00,CLR,CLR,0.55,WeatherDisplay:10.37,2013-04-17 15:10:00,
2013-04-17 10:15:00,39.1,37.8,29.93,East,88,3.5,3.5,95,0.00,CLR,CLR,0.55,WeatherDisplay:10.37,2013-04-17 15:15:00,
2013-04-17 10:20:00,39.1,37.8,29.95,ENE,61,3.5,3.5,95,0.01,RA,RA,0.56,WeatherDisplay:10.37,2013-04-17 15:20:00,
2013-04-17 10:25:00,39.1,37.8,29.95,North,360,3.5,3.5,95,0.01,RA,RA,0.56,WeatherDisplay:10.37,2013-04-17 15:25:00,
2013-04-17 10:30:00,39.1,37.8,29.95,NE,35,7.0,7.0,95,0.01,CLR,CLR,0.56,WeatherDisplay:10.37,2013-04-17 15:30:00,
2013-04-17 10:35:00,39.1,38.1,29.93,NNW,343,4.0,4.0,96,0.01,CLR,CLR,0.56,WeatherDisplay:10.37,2013-04-17 15:35:00,
2013-04-17 10:40:00,39.1,37.8,29.93,NNE,33,3.5,3.5,95,0.01,CLR,CLR,0.56,WeatherDisplay:10.37,2013-04-17 15:40:00,
2013-04-17 10:45:00,39.2,38.2,29.93,ENE,59,4.0,4.0,96,0.01,CLR,CLR,0.56,WeatherDisplay:10.37,2013-04-17 15:45:00,
2013-04-17 10:50:00,39.2,38.2,29.93,NNE,32,3.5,3.5,96,0.01,CLR,CLR,0.56,WeatherDisplay:10.37,2013-04-17 15:50:00,
2013-04-17 10:55:00,39.3,38.3,29.92,NNE,32,4.0,4.0,96,0.01,CLR,CLR,0.56,WeatherDisplay:10.37,2013-04-17 15:55:00,
2013-04-17 11:00:00,39.5,38.5,29.92,NE,36,3.5,3.5,96,0.01,CLR,CLR,0.56,WeatherDisplay:10.37,2013-04-17 16:00:00,
2013-04-17 11:05:00,39.5,38.5,29.92,NNW,344,3.5,3.5,96,0.01,CLR,CLR,0.56,WeatherDisplay:10.37,2013-04-17 16:05:00,
2013-04-17 11:10:00,39.5,38.5,29.92,North,360,8.1,8.1,96,0.01,CLR,CLR,0.56,WeatherDisplay:10.37,2013-04-17 16:10:00,
2013-04-17 11:15:00,39.5,38.5,29.91,North,11,3.5,3.5,96,0.01,CLR,CLR,0.56,WeatherDisplay:10.37,2013-04-17 16:15:00,
2013-04-17 11:20:00,39.5,38.5,29.90,NNE,27,4.0,4.0,96,0.00,CLR,CLR,0.56,WeatherDisplay:10.37,2013-04-17 16:20:00,
2013-04-17 11:25:00,39.6,38.6,29.91,ENE,78,3.5,3.5,96,0.00,CLR,CLR,0.56,WeatherDisplay:10.37,2013-04-17 16:25:00,
2013-04-17 11:30:00,39.6,38.6,29.92,North,355,3.5,3.5,96,0.00,CLR,CLR,0.56,WeatherDisplay:10.37,2013-04-17 16:30:00,
2013-04-17 11:35:00,39.6,38.6,29.92,NNE,17,3.5,3.5,96,0.00,CLR,CLR,0.56,WeatherDisplay:10.37,2013-04-17 16:35:00,
2013-04-17 11:40:00,39.6,38.6,29.91,North,9,3.5,3.5,96,0.00,CLR,CLR,0.56,WeatherDisplay:10.37,2013-04-17 16:40:00,
2013-04-17 11:45:00,39.6,38.6,29.89,NE,37,6.0,6.0,96,0.00,CLR,CLR,0.56,WeatherDisplay:10.37,2013-04-17 16:45:00,
2013-04-17 11:50:00,39.6,38.6,29.91,North,10,3.5,3.5,96,0.00,CLR,CLR,0.56,WeatherDisplay:10.37,2013-04-17 16:50:00,
2013-04-17 11:55:00,39.7,38.7,29.91,NNE,20,7.0,7.0,96,0.00,CLR,CLR,0.56,WeatherDisplay:10.37,2013-04-17 16:55:00,
2013-04-17 12:00:00,39.7,38.7,29.91,NNW,338,3.5,3.5,96,0.00,CLR,CLR,0.56,WeatherDisplay:10.37,2013-04-17 17:00:00,
2013-04-17 12:05:00,39.7,38.7,29.91,NNW,342,4.0,4.0,96,0.00,CLR,CLR,0.56,WeatherDisplay:10.37,2013-04-17 17:05:00,
2013-04-17 12:10:00,39.8,38.8,29.91,NE,42,4.0,4.0,96,0.00,CLR,CLR,0.56,WeatherDisplay:10.37,2013-04-17 17:10:00,
2013-04-17 12:15:00,39.8,38.8,29.92,NNE,13,5.0,5.0,96,0.00,CLR,CLR,0.56,WeatherDisplay:10.37,2013-04-17 17:15:00,
2013-04-17 12:20:00,39.9,38.9,29.91,NNW,347,6.0,6.0,96,0.00,CLR,CLR,0.56,WeatherDisplay:10.37,2013-04-17 17:20:00,
2013-04-17 12:25:00,39.9,38.9,29.91,NNE,26,3.5,3.5,96,0.00,CLR,CLR,0.56,WeatherDisplay:10.37,2013-04-17 17:25:00,
2013-04-17 12:30:00,40.0,39.0,29.90,WNW,303,3.5,3.5,96,0.00,CLR,CLR,0.56,WeatherDisplay:10.37,2013-04-17 17:30:00,
2013-04-17 12:35:00,40.0,39.0,29.89,ENE,71,2.3,2.3,96,0.00,CLR,CLR,0.56,WeatherDisplay:10.37,2013-04-17 17:35:00,
2013-04-17 12:40:00,40.0,39.0,29.88,North,355,3.5,3.5,96,0.00,CLR,CLR,0.56,WeatherDisplay:10.37,2013-04-17 17:40:00,
2013-04-17 12:45:00,40.1,39.1,29.88,NNE,31,5.0,5.0,96,0.00,CLR,CLR,0.56,WeatherDisplay:10.37,2013-04-17 17:45:00,
2013-04-17 12:50:00,40.0,39.0,29.89,North,5,5.0,5.0,96,0.00,CLR,CLR,0.56,WeatherDisplay:10.37,2013-04-17 17:50:00,
2013-04-17 12:55:00,40.1,39.1,29.89,NNE,25,3.5,3.5,96,0.00,CLR,CLR,0.56,WeatherDisplay:10.37,2013-04-17 17:55:00,
2013-04-17 13:00:00,40.2,39.2,29.88,North,5,7.0,7.0,96,0.00,CLR,CLR,0.56,WeatherDisplay:10.37,2013-04-17 18:00:00,
2013-04-17 13:05:00,40.3,39.3,29.88,NNW,348,3.5,3.5,96,0.00,CLR,CLR,0.56,WeatherDisplay:10.37,2013-04-17 18:05:00,
2013-04-17 13:10:00,40.3,39.3,29.88,NNE,13,3.5,3.5,96,0.00,CLR,CLR,0.56,WeatherDisplay:10.37,2013-04-17 18:10:00,
2013-04-17 13:15:00,40.3,39.3,29.87,North,355,8.0,8.0,96,0.00,CLR,CLR,0.56,WeatherDisplay:10.37,2013-04-17 18:15:00,
2013-04-17 13:20:00,40.4,39.4,29.88,NNE,19,3.5,3.5,96,0.00,CLR,CLR,0.56,WeatherDisplay:10.37,2013-04-17 18:20:00,
2013-04-17 13:25:00,40.4,39.6,29.89,NNW,333,3.5,3.5,97,0.00,CLR,CLR,0.56,WeatherDisplay:10.37,2013-04-17 18:25:00,
2013-04-17 13:30:00,40.5,39.4,29.88,NNE,17,6.0,6.0,96,0.00,CLR,CLR,0.56,WeatherDisplay:10.37,2013-04-17 18:30:00,
2013-04-17 13:35:00,40.5,39.4,29.88,NNW,344,4.0,4.0,96,0.00,CLR,CLR,0.56,WeatherDisplay:10.37,2013-04-17 18:35:00,
2013-04-17 13:40:00,40.5,39.4,29.89,NNW,346,4.0,4.0,96,0.00,CLR,CLR,0.56,WeatherDisplay:10.37,2013-04-17 18:40:00,
2013-04-17 13:45:00,40.6,39.5,29.89,NNE,13,3.5,3.5,96,0.00,CLR,CLR,0.56,WeatherDisplay:10.37,2013-04-17 18:45:00,
2013-04-17 13:50:00,40.6,39.5,29.90,NNW,342,4.0,4.0,96,0.00,CLR,CLR,0.56,WeatherDisplay:10.37,2013-04-17 18:50:00,
2013-04-17 13:55:00,40.6,39.5,29.88,NE,40,4.0,4.0,96,0.00,CLR,CLR,0.56,WeatherDisplay:10.37,2013-04-17 18:55:00,
2013-04-17 14:00:00,40.7,39.6,29.87,NNE,15,3.5,3.5,96,0.00,CLR,CLR,0.56,WeatherDisplay:10.37,2013-04-17 19:00:00,
2013-04-17 14:05:00,40.7,39.9,29.86,NNE,15,5.0,5.0,97,0.00,CLR,CLR,0.56,WeatherDisplay:10.37,2013-04-17 19:05:00,
2013-04-17 14:10:00,40.8,40.0,29.85,NNE,14,4.0,4.0,97,0.00,CLR,CLR,0.56,WeatherDisplay:10.37,2013-04-17 19:10:00,
2013-04-17 14:15:00,40.9,40.1,29.86,NNW,332,5.0,5.0,97,0.00,CLR,CLR,0.56,WeatherDisplay:10.37,2013-04-17 19:15:00,
2013-04-17 14:20:00,40.9,40.1,29.85,NNW,333,9.2,9.2,97,0.00,CLR,CLR,0.56,WeatherDisplay:10.37,2013-04-17 19:20:00,
2013-04-17 14:25:00,41.0,40.2,29.85,North,360,3.0,3.0,97,0.00,CLR,CLR,0.56,WeatherDisplay:10.37,2013-04-17 19:25:00,
2013-04-17 14:30:00,41.0,40.2,29.89,NNW,338,6.0,6.0,97,0.00,CLR,CLR,0.56,WeatherDisplay:10.37,2013-04-17 19:30:00,
2013-04-17 14:35:00,41.1,40.3,29.87,North,5,5.0,5.0,97,0.00,CLR,CLR,0.56,WeatherDisplay:10.37,2013-04-17 19:35:00,
2013-04-17 14:40:00,41.2,40.4,29.85,NE,36,2.3,2.3,97,0.00,CLR,CLR,0.56,WeatherDisplay:10.37,2013-04-17 19:40:00,
2013-04-17 14:45:00,41.3,40.5,29.84,NNW,336,3.5,3.5,97,0.00,CLR,CLR,0.56,WeatherDisplay:10.37,2013-04-17 19:45:00,
2013-04-17 14:50:00,41.4,40.3,29.84,North,360,3.5,3.5,96,0.00,CLR,CLR,0.56,WeatherDisplay:10.37,2013-04-17 19:50:00,
2013-04-17 14:56:00,41.4,40.3,29.82,North,350,3.5,3.5,96,0.00,CLR,CLR,0.56,WeatherDisplay:10.37,2013-04-17 19:56:00,
2013-04-17 15:01:00,41.4,40.3,29.82,NE,56,4.6,4.6,96,0.00,CLR,CLR,0.56,WeatherDisplay:10.37,2013-04-17 20:01:00,
2013-04-17 15:07:00,41.5,40.4,29.84,NE,35,4.0,4.0,96,0.00,CLR,CLR,0.56,WeatherDisplay:10.37,2013-04-17 20:07:00,
2013-04-17 15:12:00,41.5,40.4,29.82,North,9,5.0,5.0,96,0.00,CLR,CLR,0.56,WeatherDisplay:10.37,2013-04-17 20:12:00,
2013-04-17 15:17:00,41.5,40.4,29.82,NNW,344,5.0,5.0,96,0.00,CLR,CLR,0.56,WeatherDisplay:10.37,2013-04-17 20:17:00,
2013-04-17 15:23:00,41.6,40.5,29.82,NNE,28,3.5,3.5,96,0.00,CLR,CLR,0.56,WeatherDisplay:10.37,2013-04-17 20:23:00,
2013-04-17 15:28:00,41.6,40.5,29.80,North,355,5.0,5.0,96,0.00,CLR,CLR,0.56,WeatherDisplay:10.37,2013-04-17 20:28:00,
2013-04-17 15:33:00,41.7,40.6,29.80,NE,34,5.0,5.0,96,0.00,CLR,CLR,0.56,WeatherDisplay:10.37,2013-04-17 20:33:00,
2013-04-17 15:38:00,41.9,40.8,29.80,NNW,331,6.9,6.9,96,0.00,CLR,CLR,0.56,WeatherDisplay:10.37,2013-04-17 20:38:00,
2013-04-17 15:43:00,42.0,40.9,29.81,NE,42,3.5,3.5,96,0.00,CLR,CLR,0.56,WeatherDisplay:10.37,2013-04-17 20:43:00,
2013-04-17 15:48:00,42.0,40.9,29.81,NNE,28,3.5,3.5,96,0.00,CLR,CLR,0.56,WeatherDisplay:10.37,2013-04-17 20:48:00,
2013-04-17 15:53:00,42.0,40.9,29.81,North,355,3.5,3.5,96,0.00,CLR,CLR,0.56,WeatherDisplay:10.37,2013-04-17 20:53:00,
2013-04-17 15:58:00,42.0,40.9,29.81,NNW,332,7.0,7.0,96,0.00,CLR,CLR,0.56,WeatherDisplay:10.37,2013-04-17 20:58:00,
2013-04-17 16:03:00,41.9,40.8,29.78,NNE,16,3.5,3.5,96,0.00,CLR,CLR,0.56,WeatherDisplay:10.37,2013-04-17 21:03:00,
2013-04-17 16:08:00,41.9,40.8,29.79,NE,40,3.5,3.5,96,0.01,RA,RA,0.57,WeatherDisplay:10.37,2013-04-17 21:08:00,
2013-04-17 16:13:00,41.8,40.7,29.81,NW,315,6.0,6.0,96,0.01,RA,RA,0.57,WeatherDisplay:10.37,2013-04-17 21:13:00,
2013-04-17 16:18:00,41.8,40.7,29.83,NE,49,2.0,2.0,96,0.02,RA,RA,0.58,WeatherDisplay:10.37,2013-04-17 21:18:00,
2013-04-17 16:23:00,41.8,40.7,29.85,NNE,16,6.0,6.0,96,0.02,RA,RA,0.58,WeatherDisplay:10.37,2013-04-17 21:23:00,
2013-04-17 16:28:00,41.8,40.7,29.85,North,5,2.3,2.3,96,0.02,CLR,CLR,0.58,WeatherDisplay:10.37,2013-04-17 21:28:00,
2013-04-17 16:33:00,41.8,40.7,29.80,NNW,342,5.0,5.0,96,0.03,RA,RA,0.59,WeatherDisplay:10.37,2013-04-17 21:33:00,
2013-04-17 16:38:00,41.8,40.7,29.87,West,276,2.3,2.3,96,0.03,RA,RA,0.59,WeatherDisplay:10.37,2013-04-17 21:38:00,
2013-04-17 16:43:00,41.8,40.7,29.88,NNW,327,2.3,2.3,96,0.04,RA,RA,0.60,WeatherDisplay:10.37,2013-04-17 21:43:00,
2013-04-17 16:48:00,41.9,40.8,29.86,NW,307,3.5,3.5,96,0.04,RA,RA,0.60,WeatherDisplay:10.37,2013-04-17 21:48:00,
2013-04-17 16:53:00,41.8,40.7,29.83,NNW,341,3.5,3.5,96,0.04,RA,RA,0.60,WeatherDisplay:10.37,2013-04-17 21:53:00,
2013-04-17 16:58:00,41.8,41.0,29.86,North,349,2.3,2.3,97,0.05,RA,RA,0.61,WeatherDisplay:10.37,2013-04-17 21:58:00,
2013-04-17 17:03:00,41.8,41.0,29.90,WNW,294,2.3,2.3,97,0.06,RA,RA,0.62,WeatherDisplay:10.37,2013-04-17 22:03:00,
2013-04-17 17:08:00,41.8,41.0,29.86,NE,34,1.2,1.2,97,0.06,RA,RA,0.63,WeatherDisplay:10.37,2013-04-17 22:08:00,
2013-04-17 17:13:00,41.8,41.0,29.81,NNE,20,4.0,4.0,97,0.08,RA,RA,0.65,WeatherDisplay:10.37,2013-04-17 22:13:00,
2013-04-17 17:18:00,41.7,40.9,29.83,NNE,18,2.3,2.3,97,0.08,RA,RA,0.66,WeatherDisplay:10.37,2013-04-17 22:18:00,
2013-04-17 17:23:00,41.7,40.9,29.81,ENE,72,3.5,3.5,97,0.09,RA,RA,0.67,WeatherDisplay:10.37,2013-04-17 22:23:00,
2013-04-17 17:28:00,41.6,40.8,29.77,NNW,331,5.0,5.0,97,0.10,RA,RA,0.68,WeatherDisplay:10.37,2013-04-17 22:28:00,
2013-04-17 17:33:00,41.6,40.8,29.78,NE,44,5.0,5.0,97,0.10,RA,RA,0.69,WeatherDisplay:10.37,2013-04-17 22:33:00,
2013-04-17 17:38:00,41.6,40.8,29.78,NNW,333,4.0,4.0,97,0.10,RA,RA,0.69,WeatherDisplay:10.37,2013-04-17 22:38:00,
2013-04-17 17:43:00,41.7,40.9,29.76,NW,321,8.1,8.1,97,0.09,CLR,CLR,0.69,WeatherDisplay:10.37,2013-04-17 22:43:00,
2013-04-17 17:48:00,41.7,40.9,29.73,NNE,21,10.0,10.0,97,0.10,RA,RA,0.70,WeatherDisplay:10.37,2013-04-17 22:48:00,
2013-04-17 17:54:00,41.6,40.8,29.71,NNW,338,6.0,6.0,97,0.09,,,0.70,WeatherDisplay:10.37,2013-04-17 22:54:00,
2013-04-17 17:59:00,41.5,40.7,29.71,NNE,33,9.2,9.2,97,0.09,CLR,CLR,0.70,WeatherDisplay:10.37,2013-04-17 22:59:00,
2013-04-17 18:04:00,41.4,40.3,29.72,NW,311,9.2,9.2,96,0.08,CLR,CLR,0.70,WeatherDisplay:10.37,2013-04-17 23:04:00,
2013-04-17 18:09:00,41.4,40.3,29.72,NE,51,11.5,11.5,96,0.07,CLR,CLR,0.70,WeatherDisplay:10.37,2013-04-17 23:09:00,
2013-04-17 18:14:00,41.3,40.2,29.72,North,355,10.0,10.0,96,0.05,CLR,CLR,0.70,WeatherDisplay:10.37,2013-04-17 23:14:00,
2013-04-17 18:19:00,41.2,40.1,29.73,NNW,337,5.0,5.0,96,0.04,CLR,CLR,0.70,WeatherDisplay:10.37,2013-04-17 23:19:00,
2013-04-17 18:24:00,41.1,40.0,29.74,North,5,9.2,9.2,96,0.03,CLR,CLR,0.70,WeatherDisplay:10.37,2013-04-17 23:24:00,
2013-04-17 18:29:00,41.1,39.8,29.75,NW,309,8.1,8.1,95,0.01,CLR,CLR,0.70,WeatherDisplay:10.37,2013-04-17 23:29:00,
2013-04-17 18:34:00,41.0,39.7,29.77,NNE,31,9.2,9.2,95,0.01,CLR,CLR,0.70,WeatherDisplay:10.37,2013-04-17 23:34:00,
2013-04-17 18:39:00,41.0,39.9,29.77,North,9,7.0,7.0,96,0.01,CLR,CLR,0.70,WeatherDisplay:10.37,2013-04-17 23:39:00,
2013-04-17 18:44:00,41.0,39.7,29.80,NE,40,8.0,8.0,95,0.01,CLR,CLR,0.70,WeatherDisplay:10.37,2013-04-17 23:44:00,
2013-04-17 18:49:00,41.0,39.7,29.81,North,355,8.1,8.1,95,0.00,CLR,CLR,0.70,WeatherDisplay:10.37,2013-04-17 23:49:00,
2013-04-17 18:54:00,41.0,39.7,29.82,NNE,19,5.0,5.0,95,0.00,CLR,CLR,0.70,WeatherDisplay:10.37,2013-04-17 23:54:00,
2013-04-17 18:59:00,40.8,39.5,29.83,North,355,6.0,6.0,95,0.00,CLR,CLR,0.70,WeatherDisplay:10.37,2013-04-17 23:59:00,
2013-04-17 19:04:00,40.6,39.0,29.83,NW,325,8.1,8.1,94,0.00,CLR,CLR,0.70,WeatherDisplay:10.37,2013-04-18 00:04:00,
2013-04-17 19:09:00,40.4,38.8,29.84,NW,325,9.2,9.2,94,0.00,CLR,CLR,0.70,WeatherDisplay:10.37,2013-04-18 00:09:00,
2013-04-17 19:14:00,40.4,38.8,29.84,NW,316,7.0,7.0,94,0.00,CLR,CLR,0.70,WeatherDisplay:10.37,2013-04-18 00:14:00,
2013-04-17 19:19:00,40.3,38.7,29.84,North,5,5.8,5.8,94,0.00,CLR,CLR,0.70,WeatherDisplay:10.37,2013-04-18 00:19:00,
2013-04-17 19:24:00,40.2,38.6,29.84,NNW,338,9.2,9.2,94,0.00,CLR,CLR,0.70,WeatherDisplay:10.37,2013-04-18 00:24:00,
2013-04-17 19:29:00,40.1,38.5,29.84,North,360,7.0,7.0,94,0.00,CLR,CLR,0.70,WeatherDisplay:10.37,2013-04-18 00:29:00,
2013-04-17 19:34:00,40.0,38.4,29.83,NE,44,7.0,7.0,94,0.00,CLR,CLR,0.70,WeatherDisplay:10.37,2013-04-18 00:34:00,
2013-04-17 19:39:00,40.0,38.1,29.84,NNW,345,7.0,7.0,93,0.00,CLR,CLR,0.70,WeatherDisplay:10.37,2013-04-18 00:39:00,
2013-04-17 19:44:00,39.9,38.0,29.84,North,355,5.0,5.0,93,0.00,CLR,CLR,0.70,WeatherDisplay:10.37,2013-04-18 00:44:00,
2013-04-17 19:49:00,39.9,38.0,29.84,NNW,330,7.0,7.0,93,0.00,CLR,CLR,0.70,WeatherDisplay:10.37,2013-04-18 00:49:00,
2013-04-17 19:54:00,39.8,37.9,29.84,North,360,8.1,8.1,93,0.00,CLR,CLR,0.70,WeatherDisplay:10.37,2013-04-18 00:54:00,
2013-04-17 19:59:00,39.8,37.9,29.84,NNW,347,10.4,10.4,93,0.00,CLR,CLR,0.70,WeatherDisplay:10.37,2013-04-18 00:59:00,
2013-04-17 20:04:00,39.7,37.8,29.85,NNW,334,6.9,6.9,93,0.00,CLR,CLR,0.70,WeatherDisplay:10.37,2013-04-18 01:04:00,
2013-04-17 20:09:00,39.6,37.7,29.86,NNW,344,8.1,8.1,93,0.00,CLR,CLR,0.70,WeatherDisplay:10.37,2013-04-18 01:09:00,
2013-04-17 20:14:00,39.5,37.6,29.86,NNE,31,4.0,4.0,93,0.00,CLR,CLR,0.70,WeatherDisplay:10.37,2013-04-18 01:14:00,
2013-04-17 20:19:00,39.4,37.5,29.85,NW,323,8.1,8.1,93,0.00,CLR,CLR,0.70,WeatherDisplay:10.37,2013-04-18 01:19:00,
2013-04-17 20:25:00,39.3,37.4,29.84,NNW,346,5.8,5.8,93,0.00,CLR,CLR,0.70,WeatherDisplay:10.37,2013-04-18 01:25:00,
2013-04-17 20:30:00,39.2,37.6,29.83,NNW,348,10.0,10.0,94,0.00,CLR,CLR,0.70,WeatherDisplay:10.37,2013-04-18 01:30:00,
2013-04-17 20:35:00,39.1,37.5,29.83,NNW,342,10.4,10.4,94,0.00,CLR,CLR,0.70,WeatherDisplay:10.37,2013-04-18 01:35:00,
2013-04-17 20:41:00,39.0,37.1,29.83,NNE,32,13.0,13.0,93,0.00,CLR,CLR,0.70,WeatherDisplay:10.37,2013-04-18 01:41:00,
2013-04-17 20:47:00,39.0,37.1,29.83,North,11,6.0,6.0,93,0.00,CLR,CLR,0.70,WeatherDisplay:10.37,2013-04-18 01:47:00,
2013-04-17 20:52:00,39.0,37.1,29.83,NNW,327,4.6,4.6,93,0.00,CLR,CLR,0.70,WeatherDisplay:10.37,2013-04-18 01:52:00,
2013-04-17 20:57:00,39.0,37.1,29.85,WNW,282,8.1,8.1,93,0.00,CLR,CLR,0.70,WeatherDisplay:10.37,2013-04-18 01:57:00,
2013-04-17 21:02:00,39.0,37.4,29.85,North,5,10.0,10.0,94,0.00,CLR,CLR,0.70,WeatherDisplay:10.37,2013-04-18 02:02:00,
2013-04-17 21:07:00,39.0,37.1,29.85,NE,41,8.1,8.1,93,0.00,CLR,CLR,0.70,WeatherDisplay:10.37,2013-04-18 02:07:00,
2013-04-17 21:12:00,39.0,37.1,29.84,WNW,298,9.2,9.2,93,0.00,CLR,CLR,0.70,WeatherDisplay:10.37,2013-04-18 02:12:00,
2013-04-17 21:17:00,38.9,37.0,29.85,NNW,338,11.0,11.0,93,0.00,CLR,CLR,0.70,WeatherDisplay:10.37,2013-04-18 02:17:00,
2013-04-17 21:22:00,38.9,37.0,29.85,North,355,9.2,9.2,93,0.00,CLR,CLR,0.70,WeatherDisplay:10.37,2013-04-18 02:22:00,
2013-04-17 21:27:00,38.8,36.9,29.85,SW,236,9.2,9.2,93,0.00,CLR,CLR,0.70,WeatherDisplay:10.37,2013-04-18 02:27:00,
2013-04-17 21:32:00,38.6,37.0,29.85,SW,234,11.0,11.0,94,0.00,CLR,CLR,0.70,WeatherDisplay:10.37,2013-04-18 02:32:00,
2013-04-17 21:37:00,38.4,36.8,29.85,NNW,346,10.4,10.4,94,0.00,CLR,CLR,0.70,WeatherDisplay:10.37,2013-04-18 02:37:00,
2013-04-17 21:42:00,38.2,36.6,29.85,North,360,12.0,12.0,94,0.00,CLR,CLR,0.70,WeatherDisplay:10.37,2013-04-18 02:42:00,
2013-04-17 21:47:00,38.1,36.5,29.85,North,360,11.0,11.0,94,0.00,CLR,CLR,0.70,WeatherDisplay:10.37,2013-04-18 02:47:00,
2013-04-17 21:52:00,38.1,36.3,29.85,NNW,332,10.4,10.4,93,0.00,CLR,CLR,0.70,WeatherDisplay:10.37,2013-04-18 02:52:00,
2013-04-17 21:57:00,38.0,36.2,29.84,North,360,10.4,10.4,93,0.00,CLR,CLR,0.70,WeatherDisplay:10.37,2013-04-18 02:57:00,
2013-04-17 22:02:00,38.0,36.2,29.84,NE,38,13.8,13.8,93,0.00,CLR,CLR,0.70,WeatherDisplay:10.37,2013-04-18 03:02:00,
2013-04-17 22:07:00,38.0,36.2,29.84,NW,323,12.0,12.0,93,0.00,CLR,CLR,0.70,WeatherDisplay:10.37,2013-04-18 03:07:00,
2013-04-17 22:12:00,38.0,36.2,29.85,ENE,66,9.2,9.2,93,0.00,CLR,CLR,0.70,WeatherDisplay:10.37,2013-04-18 03:12:00,
2013-04-17 22:17:00,38.0,36.2,29.85,West,281,9.0,9.0,93,0.00,CLR,CLR,0.70,WeatherDisplay:10.37,2013-04-18 03:17:00,
2013-04-17 22:22:00,38.0,36.2,29.83,NNW,342,9.2,9.2,93,0.00,CLR,CLR,0.70,WeatherDisplay:10.37,2013-04-18 03:22:00,
2013-04-17 22:27:00,38.0,36.2,29.84,NNE,22,14.0,14.0,93,0.00,CLR,CLR,0.70,WeatherDisplay:10.37,2013-04-18 03:27:00,
2013-04-17 22:32:00,37.9,36.1,29.83,East,80,9.2,9.2,93,0.00,CLR,CLR,0.70,WeatherDisplay:10.37,2013-04-18 03:32:00,
2013-04-17 22:37:00,37.8,36.0,29.83,North,5,10.0,10.0,93,0.00,CLR,CLR,0.70,WeatherDisplay:10.37,2013-04-18 03:37:00,
2013-04-17 22:42:00,37.7,35.9,29.83,NNE,28,12.0,12.0,93,0.00,CLR,CLR,0.70,WeatherDisplay:10.37,2013-04-18 03:42:00,
2013-04-17 22:47:00,37.7,35.9,29.84,NW,319,12.0,12.0,93,0.00,CLR,CLR,0.70,WeatherDisplay:10.37,2013-04-18 03:47:00,
2013-04-17 22:52:00,37.6,35.8,29.84,West,260,11.5,11.5,93,0.00,CLR,CLR,0.70,WeatherDisplay:10.37,2013-04-18 03:52:00,
2013-04-17 22:57:00,37.6,35.8,29.84,NNW,333,12.7,12.7,93,0.00,CLR,CLR,0.70,WeatherDisplay:10.37,2013-04-18 03:57:00,
2013-04-17 23:01:00,37.6,35.8,29.85,NE,34,7.0,7.0,93,0.00,CLR,CLR,0.70,WeatherDisplay:10.37,2013-04-18 04:01:00,
2013-04-17 23:02:00,37.6,35.8,29.85,NW,319,3.5,3.5,93,0.00,CLR,CLR,0.70,WeatherDisplay:10.37,2013-04-18 04:02:00,
2013-04-17 23:03:00,37.6,35.8,29.85,NNW,337,11.0,11.0,93,0.00,CLR,CLR,0.70,WeatherDisplay:10.37,2013-04-18 04:03:00,
2013-04-17 23:04:00,37.6,35.8,29.85,NNW,344,11.5,11.5,93,0.00,CLR,CLR,0.70,WeatherDisplay:10.37,2013-04-18 04:04:00,
2013-04-17 23:05:00,37.6,35.8,29.85,NW,323,8.0,8.0,93,0.00,CLR,CLR,0.70,WeatherDisplay:10.37,2013-04-18 04:05:00,
2013-04-17 23:10:00,37.5,35.7,29.84,NNW,328,9.2,9.2,93,0.00,CLR,CLR,0.70,WeatherDisplay:10.37,2013-04-18 04:10:00,
2013-04-17 23:15:00,37.4,35.6,29.85,NNE,29,10.4,10.4,93,0.00,CLR,CLR,0.70,WeatherDisplay:10.37,2013-04-18 04:15:00,
2013-04-17 23:20:00,37.4,35.3,29.86,NNW,337,6.9,6.9,92,0.00,CLR,CLR,0.70,WeatherDisplay:10.37,2013-04-18 04:20:00,
2013-04-17 23:25:00,37.3,35.2,29.82,NE,36,11.5,11.5,92,0.00,CLR,CLR,0.70,WeatherDisplay:10.37,2013-04-18 04:25:00,
2013-04-17 23:30:00,37.2,35.4,29.83,North,11,9.0,9.0,93,0.00,CLR,CLR,0.70,WeatherDisplay:10.37,2013-04-18 04:30:00,
2013-04-17 23:35:00,37.1,35.3,29.82,WNW,299,10.4,10.4,93,0.00,CLR,CLR,0.70,WeatherDisplay:10.37,2013-04-18 04:35:00,
2013-04-17 23:40:00,37.0,35.2,29.82,NW,311,12.0,12.0,93,0.00,CLR,CLR,0.71,WeatherDisplay:10.37,2013-04-18 04:40:00,
2013-04-17 23:45:00,36.8,35.2,29.79,North,355,11.5,11.5,94,0.01,RA,RA,0.71,WeatherDisplay:10.37,2013-04-18 04:45:00,
2013-04-17 23:50:00,36.6,35.0,29.78,NNW,342,9.2,9.2,94,0.02,RA,RA,0.72,WeatherDisplay:10.37,2013-04-18 04:50:00,
2013-04-17 23:55:00,36.5,34.9,29.77,WNW,302,16.1,16.1,94,0.03,RA,RA,0.73,WeatherDisplay:10.37,2013-04-18 04:55:00,